Port Wing, Wisconsin
Current Conditions -  °F | °C
As of 6:41 PM on Sunday 21 Dec 2014 (Local Time) from KTWM Reporting Station
Overcast Overcast  
Wind Chill: 36°   Ceiling: 800
Heat Index: 36°   Visibility: 4mi
Dew Point: 30°   Wind: 3mph
Humidity: 81%   Direction: 100°E
Pressure: 29.75"   Gusts: NA
Location:  46.77°N, 91.39°W
Report Text: KTWM 220041Z AUTO 10003KT 4SM SCT002 OVC008 02/M01 A2975 RMK AO2
Loading
Personal Weather Stations






























Interactive Weather Map New forecast layout! Learn more

10-Day Weather Forecast

Advertisements
Track Severe Weather on mobile